Time;durP1;ratioP1;P1;durP2;ratioP2;P2;SDS_P1;SDS_P2;PMS_P1;PMS_P2;Temp;Humidity;BMP_temperature;BMP_pressure;BME280_temperature;BME280_humidity;BME280_pressure;Samples;Min_cycle;Max_cycle;Signal;HPM_P1;HPM_P2
2021/06/03 00:02:09;;;;;;;2.45;1.83;;;;;;;23.50;35.30;99946.50;4998498;28;20061;-85
2021/06/03 00:04:36;;;;;;;4.00;2.40;;;;;;;23.46;35.19;99946.00;4998235;28;20050;-85
2021/06/03 00:07:03;;;;;;;2.95;1.48;;;;;;;23.41;35.29;99941.13;4998259;28;20194;-84
2021/06/03 00:09:31;;;;;;;2.85;1.98;;;;;;;23.37;34.98;99947.03;4997828;28;20518;-84
2021/06/03 00:11:59;;;;;;;5.22;1.63;;;;;;;23.33;35.53;99946.50;4997381;28;20071;-85
2021/06/03 00:14:26;;;;;;;3.30;1.95;;;;;;;23.30;35.07;99939.59;4996274;28;20050;-82
2021/06/03 00:16:53;;;;;;;4.10;1.92;;;;;;;23.27;35.60;99937.25;4996130;28;20555;-83
2021/06/03 00:19:20;;;;;;;3.35;1.73;;;;;;;23.24;35.81;99939.41;4996908;28;20137;-82
2021/06/03 00:21:47;;;;;;;2.58;1.85;;;;;;;23.21;35.69;99929.03;4998312;28;20057;-83
2021/06/03 00:24:14;;;;;;;2.00;1.73;;;;;;;23.19;35.64;99934.56;4998368;28;20060;-83
2021/06/03 00:26:41;;;;;;;2.63;1.88;;;;;;;23.17;35.98;99937.41;4998299;28;20093;-83
2021/06/03 00:29:10;;;;;;;3.42;1.67;;;;;;;23.15;35.85;99938.56;4998732;28;20141;-81
2021/06/03 00:31:37;;;;;;;4.10;1.70;;;;;;;23.12;35.85;99929.00;4997735;28;20050;-83
2021/06/03 00:34:04;;;;;;;2.45;1.77;;;;;;;23.08;36.16;99934.88;4997881;28;20073;-83
2021/06/03 00:36:31;;;;;;;2.53;1.70;;;;;;;23.06;36.37;99931.53;4997777;28;20053;-84
2021/06/03 00:38:58;;;;;;;4.78;2.10;;;;;;;23.00;36.09;99931.19;4997898;28;20081;-83
2021/06/03 00:41:25;;;;;;;3.78;2.15;;;;;;;22.98;36.46;99933.19;4996736;28;20086;-84
2021/06/03 00:43:52;;;;;;;4.80;1.90;;;;;;;22.95;36.59;99933.50;4996590;28;20074;-84
2021/06/03 00:46:18;;;;;;;2.58;1.90;;;;;;;22.94;36.58;99928.31;4997073;28;20116;-84
2021/06/03 00:48:45;;;;;;;5.03;2.17;;;;;;;22.91;36.55;99935.69;4997093;28;20078;-84
2021/06/03 00:51:12;;;;;;;2.10;1.90;;;;;;;22.88;36.63;99930.63;4996815;28;20100;-84
2021/06/03 00:53:43;;;;;;;4.32;1.95;;;;;;;22.86;37.00;99934.47;4997059;28;20054;-83
2021/06/03 00:56:10;;;;;;;2.50;2.10;;;;;;;22.83;37.04;99934.84;4996239;28;20106;-83
2021/06/03 00:58:37;;;;;;;8.02;1.95;;;;;;;22.80;37.33;99941.34;4996336;28;20042;-84
2021/06/03 01:01:05;;;;;;;4.88;2.00;;;;;;;22.77;37.46;99939.81;4996224;28;20050;-85
2021/06/03 01:03:32;;;;;;;3.00;1.88;;;;;;;22.74;37.06;99936.63;4995135;28;20480;-83
2021/06/03 01:06:08;;;;;;;4.93;1.80;;;;;;;22.69;37.17;99933.59;4991729;28;20046;-82
2021/06/03 01:08:43;;;;;;;3.10;1.92;;;;;;;22.67;37.12;99936.44;4995410;28;20051;-81
2021/06/03 01:11:18;;;;;;;2.60;1.90;;;;;;;22.65;37.45;99935.75;4995968;28;20116;-83
2021/06/03 01:14:03;;;;;;;3.05;2.00;;;;;;;22.62;37.49;99938.78;4996921;28;20051;-82
2021/06/03 01:16:32;;;;;;;3.22;1.90;;;;;;;22.63;37.23;99933.25;4994997;28;20043;-82
2021/06/03 01:19:02;;;;;;;3.47;1.80;;;;;;;22.61;36.89;99934.44;4995666;28;20054;-81
2021/06/03 01:21:28;;;;;;;7.05;2.10;;;;;;;22.61;37.24;99931.75;4994834;28;20058;-83
2021/06/03 01:24:13;;;;;;;3.05;1.80;;;;;;;22.56;37.32;99947.47;4994437;28;20393;-82
2021/06/03 01:26:40;;;;;;;2.70;1.70;;;;;;;22.59;37.15;99934.59;4994481;28;20558;-82
2021/06/03 01:29:07;;;;;;;2.22;1.90;;;;;;;22.58;36.94;99940.94;4994391;28;20146;-83
2021/06/03 01:31:34;;;;;;;3.10;2.35;;;;;;;22.56;37.17;99940.28;4984723;28;20051;-82
2021/06/03 01:34:02;;;;;;;2.75;2.03;;;;;;;22.55;37.17;99943.09;4973984;28;20582;-82
2021/06/03 01:36:29;;;;;;;2.83;1.77;;;;;;;22.54;37.15;99938.72;4975744;28;20113;-83
2021/06/03 01:38:56;;;;;;;2.22;1.92;;;;;;;22.51;37.49;99940.72;4974738;28;20058;-82
2021/06/03 01:41:23;;;;;;;3.47;2.00;;;;;;;22.52;37.43;99945.09;4974532;28;20055;-82
2021/06/03 01:43:51;;;;;;;2.47;1.95;;;;;;;22.50;37.44;99941.72;4975068;28;20051;-82
2021/06/03 01:46:18;;;;;;;3.40;2.15;;;;;;;22.47;37.70;99947.41;4991221;28;20054;-83
2021/06/03 01:48:45;;;;;;;3.05;2.05;;;;;;;22.47;37.50;99946.56;4995645;28;20042;-83
2021/06/03 01:51:12;;;;;;;3.88;2.03;;;;;;;22.45;37.41;99946.72;4994665;28;20058;-83
2021/06/03 01:53:40;;;;;;;2.35;1.92;;;;;;;22.42;37.47;99940.84;4986498;28;20054;-83
2021/06/03 01:56:11;;;;;;;2.72;2.03;;;;;;;22.40;37.70;99941.00;4975581;28;20047;-84
2021/06/03 01:58:39;;;;;;;2.33;2.10;;;;;;;22.38;37.41;99943.84;4976828;28;20112;-82
2021/06/03 02:01:07;;;;;;;1.90;1.73;;;;;;;22.37;37.44;99941.31;4995327;28;20054;-83
2021/06/03 02:03:35;;;;;;;3.20;2.00;;;;;;;22.37;37.62;99952.06;4994933;28;20137;-82
2021/06/03 02:06:02;;;;;;;2.25;2.05;;;;;;;22.36;37.42;99939.66;4994722;28;20109;-84
2021/06/03 02:08:29;;;;;;;4.40;1.80;;;;;;;22.35;37.67;99946.03;4994065;28;20104;-84
2021/06/03 02:10:57;;;;;;;2.15;1.95;;;;;;;22.35;37.71;99948.72;4975573;28;20543;-83
2021/06/03 02:13:26;;;;;;;2.80;1.83;;;;;;;22.35;37.90;99948.72;4974274;28;20055;-83
2021/06/03 02:15:55;;;;;;;3.15;2.00;;;;;;;22.31;37.74;99945.47;4974168;28;20058;-82
2021/06/03 02:18:32;;;;;;;2.33;1.90;;;;;;;22.30;37.86;99951.84;4975229;28;20106;-82
2021/06/03 02:21:01;;;;;;;2.78;1.88;;;;;;;22.30;37.87;99942.97;4972922;28;20571;-82
2021/06/03 02:23:30;;;;;;;2.20;1.90;;;;;;;22.30;37.81;99945.63;4974031;28;20051;-82
2021/06/03 02:25:59;;;;;;;2.72;1.83;;;;;;;22.28;37.89;99944.97;4974687;28;20046;-82
2021/06/03 02:28:27;;;;;;;4.18;2.20;;;;;;;22.26;37.79;99945.13;4975325;28;20055;-83
2021/06/03 02:30:56;;;;;;;4.63;2.33;;;;;;;22.25;38.28;99948.81;4955628;28;20059;-82
2021/06/03 02:33:23;;;;;;;3.47;2.08;;;;;;;22.24;37.94;99942.59;4955254;28;20053;-83
2021/06/03 02:35:50;;;;;;;2.00;1.80;;;;;;;22.23;38.12;99935.56;4954919;28;20047;-83
2021/06/03 02:38:28;;;;;;;2.72;1.95;;;;;;;22.19;37.97;99941.41;4955857;29;20055;-83
2021/06/03 02:41:00;;;;;;;4.65;1.95;;;;;;;22.20;38.52;99943.09;4993069;28;20538;-83
2021/06/03 02:43:27;;;;;;;3.70;2.00;;;;;;;22.20;37.99;99943.09;4992759;28;20519;-82
2021/06/03 02:45:54;;;;;;;2.30;2.10;;;;;;;22.18;38.11;99943.25;4994650;28;20058;-84
2021/06/03 02:48:21;;;;;;;3.35;2.13;;;;;;;22.16;38.27;99942.56;4992617;28;20058;-83
2021/06/03 02:50:48;;;;;;;2.08;1.88;;;;;;;22.14;38.13;99947.25;4975539;28;20086;-83
2021/06/03 02:53:18;;;;;;;2.25;2.00;;;;;;;22.11;38.65;99950.25;4974343;28;20142;-83
2021/06/03 02:55:45;;;;;;;2.75;1.88;;;;;;;22.12;38.42;99947.41;4979018;28;20046;-82
2021/06/03 02:58:12;;;;;;;4.32;1.98;;;;;;;22.10;38.35;99951.25;4992282;28;20050;-82
2021/06/03 03:00:38;;;;;;;2.80;2.00;;;;;;;22.10;38.35;99945.88;4991229;28;20054;-82
2021/06/03 03:03:11;;;;;;;3.50;2.05;;;;;;;22.08;39.09;99955.91;4992714;28;20058;-82
2021/06/03 03:05:40;;;;;;;3.25;2.00;;;;;;;22.06;38.93;99953.41;4990843;28;20054;-83
2021/06/03 03:08:08;;;;;;;4.57;1.80;;;;;;;22.07;38.63;99956.91;4992312;28;20061;-82
2021/06/03 03:10:38;;;;;;;2.38;2.00;;;;;;;22.04;39.08;99959.91;4992586;28;20050;-82
2021/06/03 03:13:07;;;;;;;1.90;1.75;;;;;;;22.02;38.88;99954.72;4992193;28;20539;-83
2021/06/03 03:15:35;;;;;;;2.25;2.05;;;;;;;22.02;38.97;99957.41;4986136;28;20055;-83
2021/06/03 03:18:03;;;;;;;3.75;2.63;;;;;;;22.01;38.98;99966.41;4973142;28;20468;-82
2021/06/03 03:20:29;;;;;;;1.90;1.70;;;;;;;22.00;38.64;99968.28;4973040;28;20456;-82
2021/06/03 03:22:57;;;;;;;2.65;1.92;;;;;;;21.98;38.71;99967.56;4971620;28;20417;-82
2021/06/03 03:25:26;;;;;;;3.97;1.73;;;;;;;21.98;38.82;99966.75;4978100;28;20058;-82
2021/06/03 03:27:53;;;;;;;3.55;1.70;;;;;;;21.97;39.09;99968.59;4995941;28;20519;-83
2021/06/03 03:30:22;;;;;;;3.55;1.60;;;;;;;21.97;39.00;99963.22;4995930;28;20046;-82
2021/06/03 03:32:50;;;;;;;2.25;2.00;;;;;;;21.99;39.08;99971.94;5030009;22;20133;-81
2021/06/03 03:35:18;;;;;;;2.42;1.70;;;;;;;22.00;39.15;99978.16;4997858;28;20394;-81
2021/06/03 03:37:46;;;;;;;3.53;2.17;;;;;;;21.99;39.03;99971.94;4995309;28;20050;-81
2021/06/03 03:40:16;;;;;;;5.75;2.15;;;;;;;22.01;39.14;99985.19;4995467;28;20065;-81
2021/06/03 03:42:43;;;;;;;3.75;1.90;;;;;;;22.02;38.98;99975.31;4995346;28;20060;-81
2021/06/03 03:45:12;;;;;;;4.97;1.88;;;;;;;22.02;39.11;99975.31;4995282;28;20046;-81
2021/06/03 03:47:40;;;;;;;3.95;2.13;;;;;;;22.02;39.33;99981.53;4975960;28;20042;-81
2021/06/03 03:50:09;;;;;;;2.80;1.92;;;;;;;22.04;39.22;99978.66;4977010;28;20055;-81
2021/06/03 03:52:43;;;;;;;3.20;1.90;;;;;;;22.04;39.40;99975.97;5008111;28;20058;-81
2021/06/03 03:55:11;;;;;;;2.47;2.00;;;;;;;22.07;39.14;99981.88;4980364;28;20499;-81
2021/06/03 03:57:39;;;;;;;2.55;2.28;;;;;;;22.10;39.36;99981.56;5014964;28;20056;-81
2021/06/03 04:00:09;;;;;;;4.07;2.08;;;;;;;22.13;39.26;99983.09;5014367;28;20057;-81
2021/06/03 04:02:47;;;;;;;5.15;1.92;;;;;;;22.14;39.52;99987.47;5014464;28;20054;-82
2021/06/03 04:05:14;;;;;;;2.20;2.00;;;;;;;22.21;39.56;99987.66;5012033;28;20057;-81
2021/06/03 04:07:44;;;;;;;2.10;1.73;;;;;;;22.22;39.58;99990.19;5008523;28;20054;-81
2021/06/03 04:10:15;;;;;;;3.47;2.08;;;;;;;22.24;39.47;99990.88;5014598;28;20057;-81
2021/06/03 04:12:44;;;;;;;2.67;1.90;;;;;;;22.28;39.61;99993.25;5014137;28;20144;-81
2021/06/03 04:15:13;;;;;;;2.28;1.65;;;;;;;22.30;39.60;100000.13;5014358;28;20053;-81
2021/06/03 04:17:40;;;;;;;2.53;1.80;;;;;;;22.32;39.28;100003.47;5000608;28;20407;-81
2021/06/03 04:20:14;;;;;;;4.75;1.75;;;;;;;22.32;39.64;100003.47;4994575;28;20050;-81
2021/06/03 04:22:40;;;;;;;2.63;1.90;;;;;;;22.35;39.55;100010.38;4994438;28;20046;-81
2021/06/03 04:25:08;;;;;;;2.28;2.00;;;;;;;22.35;39.35;100011.22;4994232;28;20050;-81
2021/06/03 04:27:35;;;;;;;2.03;1.92;;;;;;;22.37;39.48;100011.06;5006783;28;20053;-81
2021/06/03 04:30:07;;;;;;;2.47;1.80;;;;;;;22.37;39.58;100013.72;5013946;28;20057;-82
2021/06/03 04:32:35;;;;;;;4.90;2.00;;;;;;;22.39;39.47;100009.06;5015174;28;20421;-81
2021/06/03 04:35:04;;;;;;;3.40;1.90;;;;;;;22.39;39.44;100009.06;5013524;28;20050;-81
2021/06/03 04:37:32;;;;;;;4.07;2.00;;;;;;;22.39;39.54;100011.75;5001408;28;20059;-81
2021/06/03 04:39:59;;;;;;;5.18;2.17;;;;;;;22.39;39.39;100007.22;4994162;28;20051;-81
2021/06/03 04:42:31;;;;;;;2.20;2.00;;;;;;;22.38;39.56;100021.63;4994078;28;20062;-81
2021/06/03 04:44:58;;;;;;;2.88;2.25;;;;;;;22.42;39.36;100018.63;4994308;28;20054;-81
2021/06/03 04:47:31;;;;;;;4.25;1.98;;;;;;;22.40;39.61;100029.53;5005033;28;20549;-81
2021/06/03 04:49:58;;;;;;;3.63;2.22;;;;;;;22.44;39.59;100038.06;5013487;28;20053;-81
2021/06/03 04:52:39;;;;;;;3.13;2.13;;;;;;;22.39;39.90;100039.38;5013454;28;20056;-81
2021/06/03 04:55:30;;;;;;;4.82;1.77;;;;;;;22.40;39.51;100037.56;5013715;28;20081;-81
2021/06/03 04:57:59;;;;;;;4.75;2.13;;;;;;;22.43;39.50;100036.41;4998278;28;20042;-81
2021/06/03 05:00:31;;;;;;;5.47;2.10;;;;;;;22.40;39.76;100048.28;4993622;28;20058;-82
2021/06/03 05:03:00;;;;;;;2.38;1.90;;;;;;;22.41;39.80;100041.91;4994167;28;20056;-81
2021/06/03 05:05:30;;;;;;;2.60;2.10;;;;;;;22.40;40.09;100045.59;4993537;28;20051;-81
2021/06/03 05:07:57;;;;;;;4.05;2.20;;;;;;;22.42;39.85;100050.81;5008891;28;20054;-81
2021/06/03 05:10:27;;;;;;;4.03;1.90;;;;;;;22.40;39.85;100056.34;5012999;28;20054;-81
2021/06/03 05:12:54;;;;;;;4.88;1.90;;;;;;;22.40;39.98;100053.66;5013029;28;20064;-82
2021/06/03 05:15:23;;;;;;;2.55;2.15;;;;;;;22.39;40.30;100060.03;5012832;28;20060;-81
2021/06/03 05:17:51;;;;;;;4.75;1.90;;;;;;;22.39;40.31;100052.81;4999579;28;20479;-81
2021/06/03 05:20:27;;;;;;;2.22;2.03;;;;;;;22.39;40.43;100054.66;4993408;28;20104;-81
2021/06/03 05:22:56;;;;;;;3.55;2.13;;;;;;;22.43;40.59;100053.31;4993495;28;20143;-81
2021/06/03 05:25:30;;;;;;;3.78;2.20;;;;;;;22.44;40.75;100057.72;4993183;28;20093;-81
2021/06/03 05:27:57;;;;;;;4.00;2.45;;;;;;;22.47;40.60;100057.38;5007450;28;20133;-81
2021/06/03 05:30:26;;;;;;;4.82;2.35;;;;;;;22.48;40.70;100061.75;5013108;28;20058;-81
2021/06/03 05:32:57;;;;;;;2.00;1.70;;;;;;;22.47;41.08;100064.59;5013111;28;20064;-81
2021/06/03 05:35:28;;;;;;;3.10;2.17;;;;;;;22.46;40.87;100060.22;4996220;28;20081;-81
2021/06/03 05:37:55;;;;;;;4.78;2.45;;;;;;;22.47;40.83;100065.41;4998883;28;20129;-81
2021/06/03 05:40:26;;;;;;;2.90;2.22;;;;;;;22.45;41.22;100067.44;4993380;28;20142;-81
2021/06/03 05:42:55;;;;;;;2.33;2.10;;;;;;;22.46;41.20;100069.09;4993239;28;20384;-81
2021/06/03 05:45:25;;;;;;;2.85;2.17;;;;;;;22.45;41.58;100071.94;4993091;28;20125;-81
2021/06/03 05:47:52;;;;;;;3.55;2.03;;;;;;;22.47;41.37;100075.31;5005474;28;20129;-81
2021/06/03 05:50:26;;;;;;;3.42;2.42;;;;;;;22.43;41.92;100074.78;5013498;28;20050;-82
2021/06/03 05:52:53;;;;;;;2.40;2.20;;;;;;;22.47;41.40;100081.50;5013006;28;20054;-82
2021/06/03 05:55:21;;;;;;;2.60;2.00;;;;;;;22.47;41.84;100081.50;5012701;28;20053;-81
2021/06/03 05:57:50;;;;;;;2.65;2.30;;;;;;;22.47;41.74;100072.63;5000603;28;20058;-82
2021/06/03 06:00:24;;;;;;;2.95;2.47;;;;;;;22.45;41.58;100078.16;4993373;28;20063;-82
2021/06/03 06:02:56;;;;;;;;;;;;;;;22.47;41.89;100084.19;4993807;28;20126;-82
2021/06/03 06:08:15;;;;;;;4.07;2.10;;;;;;;22.51;41.73;100080.19;4995939;28;20082;-82
2021/06/03 06:10:43;;;;;;;4.22;2.20;;;;;;;22.52;41.91;100084.59;5011531;28;20049;-82
2021/06/03 06:13:11;;;;;;;3.85;2.22;;;;;;;22.55;41.65;100083.47;5012786;28;20132;-82
2021/06/03 06:15:43;;;;;;;3.00;2.15;;;;;;;22.54;42.28;100087.09;5012475;28;20057;-82
2021/06/03 06:18:10;;;;;;;2.25;2.05;;;;;;;22.60;42.15;100096.38;4997938;28;20043;-82
2021/06/03 06:20:39;;;;;;;2.92;2.25;;;;;;;22.63;42.23;100102.28;4992510;28;20056;-82
2021/06/03 06:23:07;;;;;;;3.50;2.40;;;;;;;22.67;41.92;100105.47;4992744;28;20475;-82
2021/06/03 06:25:35;;;;;;;3.25;2.40;;;;;;;22.71;42.19;100106.00;4992425;28;20050;-82
2021/06/03 06:28:01;;;;;;;4.18;2.80;;;;;;;22.74;42.16;100103.00;5004380;28;20137;-82
2021/06/03 06:30:28;;;;;;;2.65;2.42;;;;;;;22.78;42.40;100110.59;5011834;28;20061;-82
2021/06/03 06:32:55;;;;;;;2.95;2.50;;;;;;;22.82;42.31;100099.53;5011917;28;20477;-82
2021/06/03 06:35:23;;;;;;;3.97;2.53;;;;;;;22.85;42.57;100116.16;5011565;28;20045;-82
2021/06/03 06:37:50;;;;;;;4.93;2.58;;;;;;;22.91;42.65;100107.47;5001133;28;20058;-82
2021/06/03 06:40:20;;;;;;;5.03;2.53;;;;;;;22.96;42.89;100101.63;4992239;28;20052;-82
2021/06/03 06:42:53;;;;;;;3.25;2.58;;;;;;;23.02;42.83;100111.72;4992261;28;20054;-82
2021/06/03 06:45:23;;;;;;;4.85;2.55;;;;;;;23.10;43.19;100118.94;4992019;28;20137;-82
2021/06/03 06:47:50;;;;;;;3.53;2.53;;;;;;;23.16;42.63;100112.97;4993153;28;20061;-82
2021/06/03 06:50:18;;;;;;;3.00;2.63;;;;;;;23.23;42.79;100117.66;4992304;28;20050;-82
2021/06/03 06:52:44;;;;;;;4.43;2.50;;;;;;;23.29;42.71;100119.72;4992541;28;20134;-85
2021/06/03 06:55:11;;;;;;;3.70;2.67;;;;;;;23.36;43.49;100125.31;4995953;28;20050;-82
2021/06/03 06:57:59;;;;;;;5.18;2.78;;;;;;;23.37;43.10;100125.16;5012185;28;20053;-86
2021/06/03 07:00:29;;;;;;;3.88;2.55;;;;;;;23.50;43.84;100132.75;5014920;28;20057;-86
2021/06/03 07:02:56;;;;;;;3.67;2.55;;;;;;;23.56;43.49;100132.06;5015248;28;20084;-86
2021/06/03 07:05:25;;;;;;;4.65;3.30;;;;;;;23.64;43.70;100122.34;5011686;28;20078;-86
2021/06/03 07:07:52;;;;;;;2.80;2.60;;;;;;;23.72;43.22;100129.59;4995997;28;20065;-86
2021/06/03 07:10:19;;;;;;;3.53;2.35;;;;;;;23.79;43.26;100123.41;5008169;28;20049;-86
2021/06/03 07:12:52;;;;;;;6.78;2.88;;;;;;;23.84;44.09;100127.44;5015359;28;20058;-86
2021/06/03 07:15:19;;;;;;;4.03;2.97;;;;;;;23.92;43.73;100128.28;5015154;28;20138;-86
2021/06/03 07:17:54;;;;;;;5.72;2.83;;;;;;;23.98;43.79;100134.84;5015623;28;20501;-86
2021/06/03 07:20:23;;;;;;;3.95;2.70;;;;;;;24.04;43.70;100128.78;5014428;28;20085;-86
2021/06/03 07:22:53;;;;;;;3.15;2.78;;;;;;;24.08;43.66;100129.31;5015379;28;20086;-86
2021/06/03 07:25:39;;;;;;;5.18;3.30;;;;;;;24.11;44.35;100125.47;5016124;28;20061;-86
2021/06/03 07:28:07;;;;;;;5.85;2.60;;;;;;;24.22;43.88;100122.44;5015545;28;20165;-86
2021/06/03 07:30:34;;;;;;;4.00;3.00;;;;;;;24.28;43.50;100129.84;5001807;28;20499;-86
2021/06/03 07:33:03;;;;;;;5.80;3.22;;;;;;;24.32;43.31;100128.50;4995426;28;20058;-86
2021/06/03 07:35:42;;;;;;;4.93;2.50;;;;;;;24.35;43.62;100121.94;4995370;28;20053;-86
2021/06/03 07:38:09;;;;;;;3.83;2.75;;;;;;;24.46;43.52;100123.44;4995508;28;20139;-86
2021/06/03 07:40:42;;;;;;;3.50;2.97;;;;;;;24.49;43.98;100133.03;4996299;28;20054;-86
2021/06/03 07:43:10;;;;;;;;;;;;;;;24.55;43.09;100125.13;4996014;28;20413;-86
2021/06/03 07:45:41;;;;;;;5.38;3.10;;;;;;;24.66;43.28;100140.06;4995374;28;19928;-86
2021/06/03 07:48:09;;;;;;;3.45;2.95;;;;;;;24.74;43.67;100139.19;5001588;28;20054;-86
2021/06/03 07:50:39;;;;;;;3.60;3.03;;;;;;;24.79;43.53;100144.09;5014589;28;20054;-86
2021/06/03 07:53:09;;;;;;;5.13;2.90;;;;;;;24.84;43.25;100142.59;5014851;28;20064;-86
2021/06/03 07:55:42;;;;;;;3.47;2.97;;;;;;;24.88;43.39;100148.47;5014379;28;20064;-86
2021/06/03 07:58:10;;;;;;;;;;;;;;;24.94;42.98;100149.63;5014472;28;20061;-86
2021/06/03 08:00:40;;;;;;;3.13;2.65;;;;;;;25.05;43.26;100151.97;5014224;28;19921;-86
2021/06/03 08:03:15;;;;;;;5.65;2.88;;;;;;;25.08;43.15;100153.47;5014387;28;20049;-86
2021/06/03 08:05:44;;;;;;;3.95;2.63;;;;;;;25.16;43.47;100153.44;5015190;28;20058;-86
2021/06/03 08:08:14;;;;;;;5.93;3.17;;;;;;;25.19;43.29;100160.34;5008279;28;20058;-86
2021/06/03 08:10:42;;;;;;;4.75;2.92;;;;;;;25.23;43.34;100159.81;4998916;28;20062;-86
2021/06/03 08:13:13;;;;;;;4.40;3.17;;;;;;;25.26;43.27;100160.47;4999527;28;20853;-86
2021/06/03 08:15:43;;;;;;;5.20;3.00;;;;;;;25.29;42.74;100158.28;4995483;28;20411;-86
2021/06/03 08:18:12;;;;;;;4.18;2.53;;;;;;;25.32;43.41;100160.63;5000755;28;20050;-86
2021/06/03 08:20:55;;;;;;;5.82;2.92;;;;;;;25.33;43.60;100158.75;5014377;28;20050;-86
2021/06/03 08:23:25;;;;;;;4.28;2.90;;;;;;;25.40;43.38;100151.66;5014314;28;20515;-86
2021/06/03 08:25:52;;;;;;;3.00;2.58;;;;;;;25.49;43.33;100158.69;5013878;28;20117;-86
2021/06/03 08:28:19;;;;;;;2.80;2.60;;;;;;;25.56;43.43;100150.75;5007080;28;20061;-86
2021/06/03 08:30:46;;;;;;;2.80;2.53;;;;;;;25.65;43.48;100154.25;4994353;28;20054;-86
2021/06/03 08:33:18;;;;;;;3.05;2.47;;;;;;;25.70;43.68;100151.88;4994489;28;20058;-86
2021/06/03 08:35:45;;;;;;;5.13;2.80;;;;;;;25.81;43.24;100156.00;4994233;28;20061;-85
2021/06/03 08:38:14;;;;;;;3.08;2.78;;;;;;;25.91;43.99;100157.63;4999691;28;20060;-86
2021/06/03 08:40:53;;;;;;;3.22;2.60;;;;;;;25.97;43.36;100146.13;5014282;28;20053;-86
2021/06/03 08:43:22;;;;;;;3.65;2.90;;;;;;;26.10;43.45;100142.84;5013590;28;20049;-86
2021/06/03 08:45:59;;;;;;;3.42;2.78;;;;;;;26.21;43.94;100138.88;5013833;28;20054;-86
2021/06/03 08:48:26;;;;;;;6.95;2.80;;;;;;;26.37;43.74;100148.72;5006311;28;20061;-86
2021/06/03 08:50:56;;;;;;;3.65;2.72;;;;;;;26.50;43.67;100145.41;4995422;28;20050;-86
2021/06/03 08:53:25;;;;;;;5.80;2.75;;;;;;;26.66;43.89;100147.91;4993895;28;20051;-86
2021/06/03 08:58:40;;;;;;;3.80;2.40;;;;;;;26.95;43.32;100145.47;5003390;28;20048;-86
2021/06/03 09:01:09;;;;;;;3.60;2.70;;;;;;;27.08;42.63;100147.53;5013880;28;20103;-86
2021/06/03 09:03:38;;;;;;;3.22;2.50;;;;;;;27.18;42.43;100149.94;5013278;28;20050;-86
2021/06/03 09:06:05;;;;;;;3.75;2.80;;;;;;;27.26;42.67;100147.16;5013656;28;20064;-86
2021/06/03 09:08:35;;;;;;;4.57;2.70;;;;;;;27.34;42.59;100150.75;5005702;28;20519;-86
2021/06/03 09:11:14;;;;;;;3.03;2.72;;;;;;;27.39;42.05;100154.56;4993419;28;20473;-86
2021/06/03 09:13:44;;;;;;;3.25;2.72;;;;;;;27.49;41.82;100151.56;4993501;28;20061;-86
2021/06/03 09:16:10;;;;;;;4.90;2.63;;;;;;;27.55;42.11;100150.78;4993589;28;20054;-86
2021/06/03 09:18:46;;;;;;;4.93;2.90;;;;;;;27.57;42.16;100153.31;5001149;28;20053;-86
2021/06/03 09:21:26;;;;;;;3.28;2.53;;;;;;;27.62;42.12;100160.91;5012918;28;20054;-84
2021/06/03 09:23:56;;;;;;;3.17;2.50;;;;;;;27.68;41.59;100162.81;5011683;28;20061;-86
2021/06/03 09:27:05;;;;;;;3.03;2.72;;;;;;;27.67;41.55;100155.75;5045613;28;20064;-86
2021/06/03 09:29:36;;;;;;;2.97;2.50;;;;;;;27.75;42.06;100165.59;5029974;28;20129;-87
2021/06/03 09:32:09;;;;;;;3.97;2.70;;;;;;;27.76;41.71;100167.28;5026100;28;20124;-87
2021/06/03 09:34:41;;;;;;;3.40;2.20;;;;;;;27.79;41.95;100164.19;5025371;28;20054;-86
2021/06/03 09:37:10;;;;;;;3.90;2.55;;;;;;;27.83;41.79;100168.19;5025471;28;20061;-86
2021/06/03 09:39:39;;;;;;;3.30;2.42;;;;;;;27.85;42.07;100168.84;5008768;28;20049;-86
2021/06/03 09:42:29;;;;;;;3.30;3.00;;;;;;;27.87;42.00;100168.63;5012732;28;20053;-89
2021/06/03 09:44:57;;;;;;;3.53;2.63;;;;;;;27.97;42.08;100183.53;5012733;28;20056;-89
2021/06/03 09:50:46;;;;;;;3.15;2.40;;;;;;;28.07;41.35;100169.69;4974867;28;20399;-88
2021/06/03 09:53:13;;;;;;;4.47;2.42;;;;;;;28.16;41.58;100169.56;4989845;28;20055;-89
2021/06/03 09:55:40;;;;;;;6.05;2.63;;;;;;;28.21;41.21;100173.38;4973962;28;20483;-89
2021/06/03 09:58:08;;;;;;;3.22;2.10;;;;;;;28.27;41.62;100173.66;5012157;28;20048;-89
2021/06/03 10:03:50;;;;;;;7.10;2.63;;;;;;;28.45;40.82;100175.88;5014223;28;20060;-89
2021/06/03 10:06:17;;;;;;;4.65;2.50;;;;;;;28.60;41.16;100181.22;5013016;28;20077;-89
2021/06/03 10:09:18;;;;;;;6.55;2.72;;;;;;;28.65;41.12;100177.91;5012371;28;20398;-89
2021/06/03 10:11:48;;;;;;;2.50;2.30;;;;;;;28.81;41.26;100182.22;5013835;28;20042;-91
2021/06/03 10:14:21;;;;;;;2.80;2.20;;;;;;;28.91;41.07;100182.72;5012797;28;20120;-88
2021/06/03 10:16:48;;;;;;;2.78;2.55;;;;;;;29.04;41.14;100178.41;5012428;28;20061;-89
2021/06/03 10:19:28;;;;;;;3.30;2.50;;;;;;;29.12;40.59;100189.91;5000379;28;20480;-88
2021/06/03 10:22:16;;;;;;;6.40;2.40;;;;;;;29.24;41.24;100179.38;4992843;28;20064;-89
2021/06/03 10:24:49;;;;;;;2.70;2.50;;;;;;;29.40;41.41;100182.75;4990951;28;20054;-88
2021/06/03 10:27:17;;;;;;;2.30;2.10;;;;;;;29.56;41.08;100172.63;4992769;28;20061;-87
2021/06/03 10:29:48;;;;;;;3.58;2.30;;;;;;;29.69;41.30;100180.81;5006814;28;20046;-89
2021/06/03 10:32:17;;;;;;;3.60;2.63;;;;;;;29.85;40.73;100178.75;5012548;28;20060;-89
2021/06/03 10:34:52;;;;;;;2.35;2.15;;;;;;;29.97;40.42;100174.41;5011853;28;20058;-89
2021/06/03 10:37:26;;;;;;;2.80;2.22;;;;;;;30.14;40.48;100179.47;5011829;28;20046;-89
2021/06/03 10:40:11;;;;;;;5.22;2.20;;;;;;;30.29;40.71;100180.13;4997168;28;20415;-89
2021/06/03 10:42:39;;;;;;;2.42;2.22;;;;;;;30.51;40.56;100177.19;4992245;28;20057;-89
2021/06/03 10:45:12;;;;;;;5.07;2.78;;;;;;;30.67;39.46;100172.34;4992321;28;20065;-88
2021/06/03 10:47:56;;;;;;;2.97;2.63;;;;;;;30.78;39.30;100174.47;4992215;28;20060;-89
2021/06/03 10:50:38;;;;;;;3.05;2.20;;;;;;;30.98;39.76;100173.56;5013041;28;20577;-89
2021/06/03 10:53:08;;;;;;;3.38;2.38;;;;;;;31.25;39.46;100175.41;5011831;28;20057;-89
2021/06/03 10:55:42;;;;;;;3.72;2.35;;;;;;;31.52;38.30;100184.31;5010877;28;20088;-88
2021/06/03 10:58:11;;;;;;;5.70;3.00;;;;;;;31.74;37.55;100173.09;5007997;28;20129;-88
2021/06/03 11:00:47;;;;;;;2.92;2.40;;;;;;;31.80;37.10;100183.09;5012048;28;20062;-89
2021/06/03 11:03:23;;;;;;;2.83;2.30;;;;;;;31.89;36.92;100182.88;5011688;28;20097;-89
2021/06/03 11:06:05;;;;;;;2.75;2.40;;;;;;;31.98;36.94;100176.97;5003337;28;20129;-86
2021/06/03 11:08:44;;;;;;;4.80;2.33;;;;;;;32.21;37.09;100174.69;4993008;28;20475;-87
2021/06/03 11:11:13;;;;;;;5.00;2.80;;;;;;;32.44;36.65;100167.81;4993824;28;20491;-87
2021/06/03 11:13:46;;;;;;;3.45;2.58;;;;;;;32.63;36.07;100158.63;4992767;28;20487;-87
2021/06/03 11:16:24;;;;;;;2.80;2.30;;;;;;;32.82;35.68;100168.75;5003603;28;20412;-86
2021/06/03 11:18:55;;;;;;;2.40;2.20;;;;;;;32.96;35.12;100172.97;4996913;28;20085;-87
2021/06/03 11:21:32;;;;;;;2.72;2.22;;;;;;;33.03;35.54;100167.47;4992723;28;20060;-86
2021/06/03 11:24:00;;;;;;;2.72;2.22;;;;;;;33.18;35.86;100160.84;4992624;28;20545;-87
2021/06/03 11:26:39;;;;;;;2.47;1.98;;;;;;;33.30;37.17;100161.69;5005080;28;20054;-85
2021/06/03 11:29:28;;;;;;;2.63;2.10;;;;;;;33.49;35.75;100167.16;5012147;28;20053;-85
2021/06/03 11:32:04;;;;;;;4.65;2.20;;;;;;;33.65;35.39;100161.09;5012209;28;20601;-85
2021/06/03 11:34:51;;;;;;;7.03;2.38;;;;;;;33.85;35.81;100159.94;5012084;28;20053;-85
2021/06/03 11:37:24;;;;;;;2.40;2.20;;;;;;;34.14;33.98;100157.44;5044466;28;20505;-85
2021/06/03 11:40:00;;;;;;;3.65;2.50;;;;;;;34.45;34.46;100149.13;5010263;28;20084;-85
2021/06/03 11:42:41;;;;;;;2.88;2.20;;;;;;;34.80;34.00;100150.22;5044715;28;20050;-85
2021/06/03 11:45:19;;;;;;;3.38;2.20;;;;;;;35.14;32.65;100150.44;5010128;28;20053;-85
2021/06/03 11:48:20;;;;;;;2.40;2.00;;;;;;;35.48;34.08;100153.28;4995751;28;20062;-85
2021/06/03 11:51:05;;;;;;;1.98;1.80;;;;;;;35.84;33.25;100146.81;4955026;28;20058;-85
2021/06/03 11:53:53;;;;;;;4.05;1.98;;;;;;;36.12;32.67;100156.88;4995669;28;20480;-85
2021/06/03 11:56:21;;;;;;;4.00;2.33;;;;;;;36.27;31.02;100146.44;5005404;28;20050;-85
2021/06/03 11:58:51;;;;;;;3.03;1.77;;;;;;;36.21;29.37;100142.78;5011260;28;20046;-85